Дата Время Давление Темп. Влажн. Скор.ветра Напр.ветра Макс.ветер Осадки/час Осадки
08.04.20 04:00 747.6 5.9 56.2 2.7 191 5.5 0 0
08.04.20 03:00 748.4 6.5 55.7 2.5 193 5.1 0 0
08.04.20 02:00 749.4 6.8 55.5 2.3 197 4.8 0 0
08.04.20 01:00 750.4 7.4 54.3 2.2 192 3.9 0 0
08.04.20 00:00 751.2 7.8 54.2 2 188 4.3 0 0
07.04.20 23:00 751.8 8.2 53.7 2.2 190 4.9 0 0
07.04.20 22:00 752.3 8.8 52.6 2.7 198 4.9 0 0
07.04.20 21:00 752.9 9.4 52 2.9 199 4.7 0 0
07.04.20 20:00 753.5 10.6 48.6 2 198 4.5 0 0
07.04.20 19:00 754.2 12.9 42.9 1.2 208 4.7 0 0
07.04.20 18:00 754.6 14.7 37.7 1.5 206 5.9 0 0
07.04.20 17:00 755.4 14 37.1 2 196 6.8 0 0
07.04.20 16:00 756.1 14.4 35.3 1.7 206 5.8 0 0
07.04.20 15:00 757.4 12.5 37.3 1.8 228 6.2 0 0
07.04.20 14:00 757.8 10.3 37.3 1.9 201 5.6 0 0
07.04.20 13:00 758.6 7.4 40.2 1.6 217 5.5 0 0
07.04.20 12:00 759.7 6.4 39.8 2 205 5.1 0 0
07.04.20 11:00 759.9 6.4 37.9 1.7 219 4.8 0 0
07.04.20 10:00 760.1 5.5 37.8 2.2 202 5.8 0 0
07.04.20 09:00 760.2 5 42.2 1.8 205 3.7 0 0
07.04.20 08:00 759.8 2.8 49.6 1.5 186 2.1 0 0
07.04.20 07:00 760.4 -2.7 71.2 0.6 0 1.5 0 0
07.04.20 06:00 760.3 -3.7 73.3 0.6 20 1 0 0
07.04.20 05:00 760.2 -3.1 72 0.7 20 1.2 0 0